sensor_id;sensor_type;location;lat;lon;timestamp;P1;durP1;ratioP1;P2;durP2;ratioP2
56481;SDS011;42384;45.186;19.958;2023-03-01T00:00:37;60.07;;;30.47;;
56481;SDS011;42384;45.186;19.958;2023-03-01T00:03:04;61.08;;;29.95;;
56481;SDS011;42384;45.186;19.958;2023-03-01T00:05:30;56.00;;;28.33;;
56481;SDS011;42384;45.186;19.958;2023-03-01T00:07:57;52.25;;;26.83;;
56481;SDS011;42384;45.186;19.958;2023-03-01T00:10:23;57.70;;;27.30;;
56481;SDS011;42384;45.186;19.958;2023-03-01T00:12:49;57.97;;;28.48;;
56481;SDS011;42384;45.186;19.958;2023-03-01T00:15:15;58.97;;;28.52;;
56481;SDS011;42384;45.186;19.958;2023-03-01T00:17:41;56.55;;;28.85;;
56481;SDS011;42384;45.186;19.958;2023-03-01T00:20:08;52.50;;;27.20;;
56481;SDS011;42384;45.186;19.958;2023-03-01T00:22:35;55.67;;;27.27;;
56481;SDS011;42384;45.186;19.958;2023-03-01T00:25:02;53.20;;;27.67;;
56481;SDS011;42384;45.186;19.958;2023-03-01T00:27:28;54.97;;;27.33;;
56481;SDS011;42384;45.186;19.958;2023-03-01T00:29:54;57.70;;;28.00;;
56481;SDS011;42384;45.186;19.958;2023-03-01T00:32:20;50.70;;;26.95;;
56481;SDS011;42384;45.186;19.958;2023-03-01T00:34:46;55.40;;;27.50;;
56481;SDS011;42384;45.186;19.958;2023-03-01T00:37:22;53.05;;;27.00;;
56481;SDS011;42384;45.186;19.958;2023-03-01T00:39:48;58.08;;;28.60;;
56481;SDS011;42384;45.186;19.958;2023-03-01T00:42:14;51.67;;;26.98;;
56481;SDS011;42384;45.186;19.958;2023-03-01T00:44:41;57.23;;;28.30;;
56481;SDS011;42384;45.186;19.958;2023-03-01T00:47:07;50.83;;;25.55;;
56481;SDS011;42384;45.186;19.958;2023-03-01T00:49:33;56.13;;;29.10;;
56481;SDS011;42384;45.186;19.958;2023-03-01T00:51:59;52.47;;;26.42;;
56481;SDS011;42384;45.186;19.958;2023-03-01T00:54:25;54.83;;;26.95;;
56481;SDS011;42384;45.186;19.958;2023-03-01T00:56:51;53.15;;;26.42;;
56481;SDS011;42384;45.186;19.958;2023-03-01T00:59:17;63.17;;;28.77;;
56481;SDS011;42384;45.186;19.958;2023-03-01T01:01:44;56.67;;;28.95;;
56481;SDS011;42384;45.186;19.958;2023-03-01T01:04:11;61.95;;;28.95;;
56481;SDS011;42384;45.186;19.958;2023-03-01T01:09:04;61.35;;;28.25;;
56481;SDS011;42384;45.186;19.958;2023-03-01T01:11:31;61.38;;;28.88;;
56481;SDS011;42384;45.186;19.958;2023-03-01T01:13:58;59.90;;;30.10;;
56481;SDS011;42384;45.186;19.958;2023-03-01T01:16:25;63.13;;;29.77;;
56481;SDS011;42384;45.186;19.958;2023-03-01T01:18:52;69.88;;;31.13;;
56481;SDS011;42384;45.186;19.958;2023-03-01T01:21:20;61.08;;;30.08;;
56481;SDS011;42384;45.186;19.958;2023-03-01T01:23:46;60.95;;;29.15;;
56481;SDS011;42384;45.186;19.958;2023-03-01T01:26:18;63.80;;;29.83;;
56481;SDS011;42384;45.186;19.958;2023-03-01T01:28:45;65.78;;;29.92;;
56481;SDS011;42384;45.186;19.958;2023-03-01T01:31:11;67.82;;;30.85;;
56481;SDS011;42384;45.186;19.958;2023-03-01T01:33:37;71.40;;;32.08;;
56481;SDS011;42384;45.186;19.958;2023-03-01T01:36:04;67.10;;;32.22;;
56481;SDS011;42384;45.186;19.958;2023-03-01T01:38:31;69.60;;;32.38;;
56481;SDS011;42384;45.186;19.958;2023-03-01T01:40:58;78.77;;;33.40;;
56481;SDS011;42384;45.186;19.958;2023-03-01T01:43:29;78.00;;;34.83;;
56481;SDS011;42384;45.186;19.958;2023-03-01T01:46:02;68.75;;;33.75;;
56481;SDS011;42384;45.186;19.958;2023-03-01T01:48:34;73.93;;;33.00;;
56481;SDS011;42384;45.186;19.958;2023-03-01T01:51:06;72.82;;;33.42;;
56481;SDS011;42384;45.186;19.958;2023-03-01T01:53:33;72.35;;;34.03;;
56481;SDS011;42384;45.186;19.958;2023-03-01T01:56:00;75.15;;;32.55;;
56481;SDS011;42384;45.186;19.958;2023-03-01T02:00:53;69.45;;;31.45;;
56481;SDS011;42384;45.186;19.958;2023-03-01T02:03:22;71.72;;;34.85;;
56481;SDS011;42384;45.186;19.958;2023-03-01T02:08:19;73.78;;;34.45;;
56481;SDS011;42384;45.186;19.958;2023-03-01T02:10:46;71.70;;;34.05;;
56481;SDS011;42384;45.186;19.958;2023-03-01T02:13:14;69.78;;;33.72;;
56481;SDS011;42384;45.186;19.958;2023-03-01T02:15:40;71.78;;;32.83;;
56481;SDS011;42384;45.186;19.958;2023-03-01T02:18:09;71.82;;;29.73;;
56481;SDS011;42384;45.186;19.958;2023-03-01T02:23:28;77.55;;;29.92;;
56481;SDS011;42384;45.186;19.958;2023-03-01T02:26:00;69.70;;;29.67;;
56481;SDS011;42384;45.186;19.958;2023-03-01T02:28:29;71.65;;;30.27;;
56481;SDS011;42384;45.186;19.958;2023-03-01T02:30:56;67.07;;;29.15;;
56481;SDS011;42384;45.186;19.958;2023-03-01T02:33:41;82.13;;;30.55;;
56481;SDS011;42384;45.186;19.958;2023-03-01T02:36:10;72.93;;;32.67;;
56481;SDS011;42384;45.186;19.958;2023-03-01T02:38:39;67.35;;;30.95;;
56481;SDS011;42384;45.186;19.958;2023-03-01T02:41:05;67.05;;;31.42;;
56481;SDS011;42384;45.186;19.958;2023-03-01T02:43:32;68.20;;;32.03;;
56481;SDS011;42384;45.186;19.958;2023-03-01T02:46:06;64.15;;;30.80;;
56481;SDS011;42384;45.186;19.958;2023-03-01T02:48:43;70.35;;;33.38;;
56481;SDS011;42384;45.186;19.958;2023-03-01T02:53:41;73.97;;;32.45;;
56481;SDS011;42384;45.186;19.958;2023-03-01T02:56:08;74.32;;;35.83;;
56481;SDS011;42384;45.186;19.958;2023-03-01T02:58:39;71.13;;;33.13;;
56481;SDS011;42384;45.186;19.958;2023-03-01T03:01:11;70.22;;;33.28;;
56481;SDS011;42384;45.186;19.958;2023-03-01T03:03:40;71.70;;;34.58;;
56481;SDS011;42384;45.186;19.958;2023-03-01T03:06:06;75.15;;;35.08;;
56481;SDS011;42384;45.186;19.958;2023-03-01T03:08:33;75.85;;;35.47;;
56481;SDS011;42384;45.186;19.958;2023-03-01T03:10:59;73.35;;;33.45;;
56481;SDS011;42384;45.186;19.958;2023-03-01T03:13:25;75.95;;;35.83;;
56481;SDS011;42384;45.186;19.958;2023-03-01T03:15:56;72.45;;;35.13;;
56481;SDS011;42384;45.186;19.958;2023-03-01T03:18:23;81.13;;;33.08;;
56481;SDS011;42384;45.186;19.958;2023-03-01T03:20:53;73.60;;;32.63;;
56481;SDS011;42384;45.186;19.958;2023-03-01T03:23:20;82.30;;;38.20;;
56481;SDS011;42384;45.186;19.958;2023-03-01T03:25:48;66.88;;;32.85;;
56481;SDS011;42384;45.186;19.958;2023-03-01T03:28:15;88.88;;;40.38;;
56481;SDS011;42384;45.186;19.958;2023-03-01T03:30:41;94.30;;;37.40;;
56481;SDS011;42384;45.186;19.958;2023-03-01T03:33:08;80.72;;;37.10;;
56481;SDS011;42384;45.186;19.958;2023-03-01T03:35:39;84.47;;;37.85;;
56481;SDS011;42384;45.186;19.958;2023-03-01T03:38:07;88.00;;;38.80;;
56481;SDS011;42384;45.186;19.958;2023-03-01T03:40:41;76.97;;;36.03;;
56481;SDS011;42384;45.186;19.958;2023-03-01T03:43:09;86.40;;;38.10;;
56481;SDS011;42384;45.186;19.958;2023-03-01T03:48:01;82.20;;;36.83;;
56481;SDS011;42384;45.186;19.958;2023-03-01T03:50:28;75.22;;;34.55;;
56481;SDS011;42384;45.186;19.958;2023-03-01T03:52:54;70.38;;;32.95;;
56481;SDS011;42384;45.186;19.958;2023-03-01T03:55:21;72.32;;;34.35;;
56481;SDS011;42384;45.186;19.958;2023-03-01T03:57:47;74.45;;;33.28;;
56481;SDS011;42384;45.186;19.958;2023-03-01T04:00:18;79.90;;;34.80;;
56481;SDS011;42384;45.186;19.958;2023-03-01T04:02:45;68.82;;;33.67;;
56481;SDS011;42384;45.186;19.958;2023-03-01T04:05:12;67.88;;;33.03;;
56481;SDS011;42384;45.186;19.958;2023-03-01T04:07:39;79.75;;;35.33;;
56481;SDS011;42384;45.186;19.958;2023-03-01T04:10:09;85.72;;;38.83;;
56481;SDS011;42384;45.186;19.958;2023-03-01T04:12:36;81.95;;;37.60;;
56481;SDS011;42384;45.186;19.958;2023-03-01T04:15:02;80.10;;;39.65;;
56481;SDS011;42384;45.186;19.958;2023-03-01T04:17:41;80.47;;;38.85;;
56481;SDS011;42384;45.186;19.958;2023-03-01T04:20:11;93.88;;;40.95;;
56481;SDS011;42384;45.186;19.958;2023-03-01T04:22:38;87.82;;;40.38;;
56481;SDS011;42384;45.186;19.958;2023-03-01T04:25:05;88.43;;;41.50;;
56481;SDS011;42384;45.186;19.958;2023-03-01T04:27:35;74.90;;;36.22;;
56481;SDS011;42384;45.186;19.958;2023-03-01T04:30:02;69.93;;;33.15;;
56481;SDS011;42384;45.186;19.958;2023-03-01T04:32:30;83.68;;;34.25;;
56481;SDS011;42384;45.186;19.958;2023-03-01T04:34:57;70.75;;;31.98;;
56481;SDS011;42384;45.186;19.958;2023-03-01T04:37:23;73.00;;;33.17;;
56481;SDS011;42384;45.186;19.958;2023-03-01T04:39:50;74.03;;;33.95;;
56481;SDS011;42384;45.186;19.958;2023-03-01T04:42:16;71.63;;;34.13;;
56481;SDS011;42384;45.186;19.958;2023-03-01T04:44:43;78.72;;;35.20;;
56481;SDS011;42384;45.186;19.958;2023-03-01T04:47:09;83.72;;;35.67;;
56481;SDS011;42384;45.186;19.958;2023-03-01T04:49:36;73.27;;;33.63;;
56481;SDS011;42384;45.186;19.958;2023-03-01T04:52:02;85.65;;;36.13;;
56481;SDS011;42384;45.186;19.958;2023-03-01T04:54:29;81.95;;;35.67;;
56481;SDS011;42384;45.186;19.958;2023-03-01T04:56:56;80.38;;;34.80;;
56481;SDS011;42384;45.186;19.958;2023-03-01T04:59:22;77.07;;;35.40;;
56481;SDS011;42384;45.186;19.958;2023-03-01T05:01:49;75.10;;;36.03;;
56481;SDS011;42384;45.186;19.958;2023-03-01T05:04:15;79.25;;;36.22;;
56481;SDS011;42384;45.186;19.958;2023-03-01T05:06:42;87.07;;;38.00;;
56481;SDS011;42384;45.186;19.958;2023-03-01T05:09:08;84.90;;;36.27;;
56481;SDS011;42384;45.186;19.958;2023-03-01T05:11:36;89.75;;;37.60;;
56481;SDS011;42384;45.186;19.958;2023-03-01T05:14:03;86.05;;;37.25;;
56481;SDS011;42384;45.186;19.958;2023-03-01T05:16:29;87.82;;;37.15;;
56481;SDS011;42384;45.186;19.958;2023-03-01T05:21:23;88.47;;;35.55;;
56481;SDS011;42384;45.186;19.958;2023-03-01T05:23:49;123.27;;;38.00;;
56481;SDS011;42384;45.186;19.958;2023-03-01T05:26:16;81.32;;;36.83;;
56481;SDS011;42384;45.186;19.958;2023-03-01T05:28:43;71.57;;;36.10;;
56481;SDS011;42384;45.186;19.958;2023-03-01T05:31:09;72.43;;;36.17;;
56481;SDS011;42384;45.186;19.958;2023-03-01T05:33:36;63.17;;;34.58;;
56481;SDS011;42384;45.186;19.958;2023-03-01T05:36:03;61.38;;;34.78;;
56481;SDS011;42384;45.186;19.958;2023-03-01T05:38:29;66.30;;;34.42;;
56481;SDS011;42384;45.186;19.958;2023-03-01T05:40:56;64.43;;;34.58;;
56481;SDS011;42384;45.186;19.958;2023-03-01T05:43:22;61.87;;;34.47;;
56481;SDS011;42384;45.186;19.958;2023-03-01T05:45:48;62.35;;;33.28;;
56481;SDS011;42384;45.186;19.958;2023-03-01T05:48:14;64.93;;;34.50;;
56481;SDS011;42384;45.186;19.958;2023-03-01T05:50:41;67.78;;;35.58;;
56481;SDS011;42384;45.186;19.958;2023-03-01T05:55:34;69.57;;;36.22;;
56481;SDS011;42384;45.186;19.958;2023-03-01T05:58:01;62.10;;;33.13;;
56481;SDS011;42384;45.186;19.958;2023-03-01T06:02:55;66.78;;;34.15;;
56481;SDS011;42384;45.186;19.958;2023-03-01T06:05:21;63.33;;;33.47;;
56481;SDS011;42384;45.186;19.958;2023-03-01T06:07:48;68.13;;;37.72;;
56481;SDS011;42384;45.186;19.958;2023-03-01T06:10:15;75.13;;;39.45;;
56481;SDS011;42384;45.186;19.958;2023-03-01T06:12:42;66.00;;;37.05;;
56481;SDS011;42384;45.186;19.958;2023-03-01T06:15:10;64.70;;;34.97;;
56481;SDS011;42384;45.186;19.958;2023-03-01T06:17:37;70.53;;;35.97;;
56481;SDS011;42384;45.186;19.958;2023-03-01T06:20:04;71.22;;;38.33;;
56481;SDS011;42384;45.186;19.958;2023-03-01T06:22:31;66.50;;;35.75;;
56481;SDS011;42384;45.186;19.958;2023-03-01T06:24:57;66.10;;;35.00;;
56481;SDS011;42384;45.186;19.958;2023-03-01T06:27:23;65.15;;;34.38;;
56481;SDS011;42384;45.186;19.958;2023-03-01T06:29:49;60.63;;;33.78;;
56481;SDS011;42384;45.186;19.958;2023-03-01T06:32:16;65.68;;;33.58;;
56481;SDS011;42384;45.186;19.958;2023-03-01T06:34:42;67.47;;;37.37;;
56481;SDS011;42384;45.186;19.958;2023-03-01T06:37:08;69.43;;;38.17;;
56481;SDS011;42384;45.186;19.958;2023-03-01T06:39:35;69.47;;;36.15;;
56481;SDS011;42384;45.186;19.958;2023-03-01T06:42:01;69.13;;;39.55;;
56481;SDS011;42384;45.186;19.958;2023-03-01T06:44:27;70.45;;;40.40;;
56481;SDS011;42384;45.186;19.958;2023-03-01T06:46:54;70.95;;;39.80;;
56481;SDS011;42384;45.186;19.958;2023-03-01T06:49:20;66.28;;;36.75;;
56481;SDS011;42384;45.186;19.958;2023-03-01T06:51:46;71.67;;;39.87;;
56481;SDS011;42384;45.186;19.958;2023-03-01T06:54:13;72.03;;;39.60;;
56481;SDS011;42384;45.186;19.958;2023-03-01T06:56:39;70.97;;;39.70;;
56481;SDS011;42384;45.186;19.958;2023-03-01T06:59:05;72.93;;;39.10;;
56481;SDS011;42384;45.186;19.958;2023-03-01T07:01:31;64.68;;;37.22;;
56481;SDS011;42384;45.186;19.958;2023-03-01T07:03:58;63.15;;;35.33;;
56481;SDS011;42384;45.186;19.958;2023-03-01T07:06:24;57.70;;;33.20;;
56481;SDS011;42384;45.186;19.958;2023-03-01T07:08:50;62.42;;;34.85;;
56481;SDS011;42384;45.186;19.958;2023-03-01T07:11:16;65.40;;;35.10;;
56481;SDS011;42384;45.186;19.958;2023-03-01T07:13:43;69.53;;;36.50;;
56481;SDS011;42384;45.186;19.958;2023-03-01T07:16:09;69.65;;;36.97;;
56481;SDS011;42384;45.186;19.958;2023-03-01T07:18:35;66.32;;;38.90;;
56481;SDS011;42384;45.186;19.958;2023-03-01T07:21:05;68.68;;;37.50;;
56481;SDS011;42384;45.186;19.958;2023-03-01T07:23:32;65.93;;;37.95;;
56481;SDS011;42384;45.186;19.958;2023-03-01T07:25:58;72.63;;;38.83;;
56481;SDS011;42384;45.186;19.958;2023-03-01T07:28:25;64.32;;;37.05;;
56481;SDS011;42384;45.186;19.958;2023-03-01T07:30:52;67.47;;;38.72;;
56481;SDS011;42384;45.186;19.958;2023-03-01T07:33:18;68.20;;;37.53;;
56481;SDS011;42384;45.186;19.958;2023-03-01T07:35:45;69.73;;;39.00;;
56481;SDS011;42384;45.186;19.958;2023-03-01T07:38:11;70.22;;;39.75;;
56481;SDS011;42384;45.186;19.958;2023-03-01T07:40:37;66.32;;;39.28;;
56481;SDS011;42384;45.186;19.958;2023-03-01T07:43:03;69.82;;;39.70;;
56481;SDS011;42384;45.186;19.958;2023-03-01T07:45:30;67.07;;;38.85;;
56481;SDS011;42384;45.186;19.958;2023-03-01T07:47:56;69.13;;;40.58;;
56481;SDS011;42384;45.186;19.958;2023-03-01T07:50:22;70.57;;;40.83;;
56481;SDS011;42384;45.186;19.958;2023-03-01T07:52:49;69.88;;;40.85;;
56481;SDS011;42384;45.186;19.958;2023-03-01T07:55:15;69.18;;;40.97;;
56481;SDS011;42384;45.186;19.958;2023-03-01T07:57:42;67.05;;;39.60;;
56481;SDS011;42384;45.186;19.958;2023-03-01T08:00:09;64.57;;;38.17;;
56481;SDS011;42384;45.186;19.958;2023-03-01T08:02:36;69.28;;;38.58;;
56481;SDS011;42384;45.186;19.958;2023-03-01T08:05:03;63.03;;;36.65;;
56481;SDS011;42384;45.186;19.958;2023-03-01T08:07:29;68.35;;;41.60;;
56481;SDS011;42384;45.186;19.958;2023-03-01T08:09:55;69.78;;;42.47;;
56481;SDS011;42384;45.186;19.958;2023-03-01T08:12:22;69.73;;;40.37;;
56481;SDS011;42384;45.186;19.958;2023-03-01T08:14:48;61.60;;;37.10;;
56481;SDS011;42384;45.186;19.958;2023-03-01T08:17:14;64.10;;;38.37;;
56481;SDS011;42384;45.186;19.958;2023-03-01T08:19:42;60.47;;;36.63;;
56481;SDS011;42384;45.186;19.958;2023-03-01T08:22:08;60.50;;;36.15;;
56481;SDS011;42384;45.186;19.958;2023-03-01T08:24:34;61.60;;;38.00;;
56481;SDS011;42384;45.186;19.958;2023-03-01T08:27:00;59.17;;;35.50;;
56481;SDS011;42384;45.186;19.958;2023-03-01T08:31:54;65.78;;;35.70;;
56481;SDS011;42384;45.186;19.958;2023-03-01T08:34:20;60.75;;;35.83;;
56481;SDS011;42384;45.186;19.958;2023-03-01T08:36:46;62.10;;;35.22;;
56481;SDS011;42384;45.186;19.958;2023-03-01T08:39:14;59.90;;;34.58;;
56481;SDS011;42384;45.186;19.958;2023-03-01T08:41:41;64.32;;;36.67;;
56481;SDS011;42384;45.186;19.958;2023-03-01T08:44:09;64.18;;;37.38;;
56481;SDS011;42384;45.186;19.958;2023-03-01T08:46:38;63.67;;;36.45;;
56481;SDS011;42384;45.186;19.958;2023-03-01T08:49:12;61.72;;;36.85;;
56481;SDS011;42384;45.186;19.958;2023-03-01T08:51:39;64.25;;;36.35;;
56481;SDS011;42384;45.186;19.958;2023-03-01T08:54:15;61.35;;;36.67;;
56481;SDS011;42384;45.186;19.958;2023-03-01T08:56:42;61.30;;;36.33;;
56481;SDS011;42384;45.186;19.958;2023-03-01T08:59:08;67.90;;;38.83;;
56481;SDS011;42384;45.186;19.958;2023-03-01T09:01:35;62.10;;;35.97;;
56481;SDS011;42384;45.186;19.958;2023-03-01T09:04:02;64.13;;;36.88;;
56481;SDS011;42384;45.186;19.958;2023-03-01T09:06:32;64.32;;;37.13;;
56481;SDS011;42384;45.186;19.958;2023-03-01T09:08:58;62.83;;;36.58;;
56481;SDS011;42384;45.186;19.958;2023-03-01T09:11:24;71.28;;;39.72;;
56481;SDS011;42384;45.186;19.958;2023-03-01T09:13:51;71.45;;;40.35;;
56481;SDS011;42384;45.186;19.958;2023-03-01T09:16:18;66.15;;;38.03;;
56481;SDS011;42384;45.186;19.958;2023-03-01T09:18:48;60.15;;;36.15;;
56481;SDS011;42384;45.186;19.958;2023-03-01T09:21:15;66.25;;;36.53;;
56481;SDS011;42384;45.186;19.958;2023-03-01T09:23:46;64.32;;;35.97;;
56481;SDS011;42384;45.186;19.958;2023-03-01T09:26:16;63.63;;;36.80;;
56481;SDS011;42384;45.186;19.958;2023-03-01T09:28:44;59.70;;;36.88;;
56481;SDS011;42384;45.186;19.958;2023-03-01T09:31:11;63.33;;;37.33;;
56481;SDS011;42384;45.186;19.958;2023-03-01T09:33:38;70.30;;;39.42;;
56481;SDS011;42384;45.186;19.958;2023-03-01T09:36:05;76.35;;;41.67;;
56481;SDS011;42384;45.186;19.958;2023-03-01T09:38:32;74.90;;;41.85;;
56481;SDS011;42384;45.186;19.958;2023-03-01T09:41:00;72.57;;;41.45;;
56481;SDS011;42384;45.186;19.958;2023-03-01T09:43:32;71.47;;;41.72;;
56481;SDS011;42384;45.186;19.958;2023-03-01T09:46:00;65.28;;;40.83;;
56481;SDS011;42384;45.186;19.958;2023-03-01T09:48:31;69.75;;;41.53;;
56481;SDS011;42384;45.186;19.958;2023-03-01T09:50:59;69.18;;;41.03;;
56481;SDS011;42384;45.186;19.958;2023-03-01T09:53:31;73.47;;;42.08;;
56481;SDS011;42384;45.186;19.958;2023-03-01T09:56:12;73.95;;;43.10;;
56481;SDS011;42384;45.186;19.958;2023-03-01T10:06:19;70.28;;;43.58;;
56481;SDS011;42384;45.186;19.958;2023-03-01T10:11:26;73.75;;;46.15;;
56481;SDS011;42384;45.186;19.958;2023-03-01T10:14:01;69.80;;;45.05;;
56481;SDS011;42384;45.186;19.958;2023-03-01T10:16:40;70.68;;;44.33;;
56481;SDS011;42384;45.186;19.958;2023-03-01T10:19:09;67.13;;;42.95;;
56481;SDS011;42384;45.186;19.958;2023-03-01T10:21:39;67.43;;;42.67;;
56481;SDS011;42384;45.186;19.958;2023-03-01T10:24:11;67.15;;;41.15;;
56481;SDS011;42384;45.186;19.958;2023-03-01T10:26:48;58.13;;;38.90;;
56481;SDS011;42384;45.186;19.958;2023-03-01T10:29:17;59.53;;;38.17;;
56481;SDS011;42384;45.186;19.958;2023-03-01T10:31:51;65.35;;;38.42;;
56481;SDS011;42384;45.186;19.958;2023-03-01T10:36:45;61.15;;;39.80;;
56481;SDS011;42384;45.186;19.958;2023-03-01T10:39:14;62.53;;;39.22;;
56481;SDS011;42384;45.186;19.958;2023-03-01T10:42:02;62.63;;;40.97;;
56481;SDS011;42384;45.186;19.958;2023-03-01T10:44:37;62.70;;;41.00;;
56481;SDS011;42384;45.186;19.958;2023-03-01T10:47:04;60.53;;;38.75;;
56481;SDS011;42384;45.186;19.958;2023-03-01T10:49:31;59.65;;;37.95;;
56481;SDS011;42384;45.186;19.958;2023-03-01T10:51:57;52.55;;;34.78;;
56481;SDS011;42384;45.186;19.958;2023-03-01T10:54:36;49.00;;;33.00;;
56481;SDS011;42384;45.186;19.958;2023-03-01T10:57:05;49.97;;;32.70;;
56481;SDS011;42384;45.186;19.958;2023-03-01T10:59:35;50.00;;;32.72;;
56481;SDS011;42384;45.186;19.958;2023-03-01T11:02:03;52.22;;;31.98;;
56481;SDS011;42384;45.186;19.958;2023-03-01T11:04:30;45.83;;;31.38;;
56481;SDS011;42384;45.186;19.958;2023-03-01T11:06:59;46.38;;;32.28;;
56481;SDS011;42384;45.186;19.958;2023-03-01T11:09:25;47.35;;;31.70;;
56481;SDS011;42384;45.186;19.958;2023-03-01T11:11:53;46.40;;;32.17;;
56481;SDS011;42384;45.186;19.958;2023-03-01T11:14:23;44.75;;;30.58;;
56481;SDS011;42384;45.186;19.958;2023-03-01T11:17:11;48.63;;;32.40;;
56481;SDS011;42384;45.186;19.958;2023-03-01T11:19:37;47.63;;;31.13;;
56481;SDS011;42384;45.186;19.958;2023-03-01T11:22:07;48.75;;;32.20;;
56481;SDS011;42384;45.186;19.958;2023-03-01T11:27:04;45.22;;;29.33;;
56481;SDS011;42384;45.186;19.958;2023-03-01T11:29:32;41.88;;;28.08;;
56481;SDS011;42384;45.186;19.958;2023-03-01T11:32:01;52.47;;;32.20;;
56481;SDS011;42384;45.186;19.958;2023-03-01T11:34:32;40.13;;;27.50;;
56481;SDS011;42384;45.186;19.958;2023-03-01T11:37:02;38.67;;;26.65;;
56481;SDS011;42384;45.186;19.958;2023-03-01T11:39:43;43.33;;;27.52;;
56481;SDS011;42384;45.186;19.958;2023-03-01T11:42:14;42.08;;;26.67;;
56481;SDS011;42384;45.186;19.958;2023-03-01T11:44:41;43.65;;;26.92;;
56481;SDS011;42384;45.186;19.958;2023-03-01T12:00:02;39.03;;;25.10;;
56481;SDS011;42384;45.186;19.958;2023-03-01T12:08:26;38.70;;;24.00;;
56481;SDS011;42384;45.186;19.958;2023-03-01T12:13:18;35.13;;;21.73;;
56481;SDS011;42384;45.186;19.958;2023-03-01T12:16:02;32.50;;;20.80;;
56481;SDS011;42384;45.186;19.958;2023-03-01T12:24:00;28.33;;;19.42;;
56481;SDS011;42384;45.186;19.958;2023-03-01T12:26:33;29.10;;;19.23;;
56481;SDS011;42384;45.186;19.958;2023-03-01T12:29:16;29.10;;;20.52;;
56481;SDS011;42384;45.186;19.958;2023-03-01T12:34:25;26.98;;;19.40;;
56481;SDS011;42384;45.186;19.958;2023-03-01T12:39:24;23.80;;;17.40;;
56481;SDS011;42384;45.186;19.958;2023-03-01T12:41:58;25.65;;;18.00;;
56481;SDS011;42384;45.186;19.958;2023-03-01T12:44:42;22.63;;;17.73;;
56481;SDS011;42384;45.186;19.958;2023-03-01T12:54:35;24.65;;;16.75;;
56481;SDS011;42384;45.186;19.958;2023-03-01T12:59:38;23.05;;;17.00;;
56481;SDS011;42384;45.186;19.958;2023-03-01T13:15:34;32.00;;;22.00;;
56481;SDS011;42384;45.186;19.958;2023-03-01T13:18:02;34.00;;;23.00;;
56481;SDS011;42384;45.186;19.958;2023-03-01T13:20:44;34.28;;;24.08;;
56481;SDS011;42384;45.186;19.958;2023-03-01T13:26:07;33.50;;;24.40;;
56481;SDS011;42384;45.186;19.958;2023-03-01T13:46:51;35.60;;;25.00;;
56481;SDS011;42384;45.186;19.958;2023-03-01T13:49:19;34.30;;;25.08;;
56481;SDS011;42384;45.186;19.958;2023-03-01T13:51:47;36.15;;;24.52;;
56481;SDS011;42384;45.186;19.958;2023-03-01T13:54:14;33.90;;;23.77;;
56481;SDS011;42384;45.186;19.958;2023-03-01T13:56:41;35.70;;;24.00;;
56481;SDS011;42384;45.186;19.958;2023-03-01T13:59:15;36.87;;;24.50;;
56481;SDS011;42384;45.186;19.958;2023-03-01T14:01:41;33.72;;;23.50;;
56481;SDS011;42384;45.186;19.958;2023-03-01T14:06:45;35.47;;;24.08;;
56481;SDS011;42384;45.186;19.958;2023-03-01T14:14:14;35.05;;;25.05;;
56481;SDS011;42384;45.186;19.958;2023-03-01T14:16:53;41.15;;;22.88;;
56481;SDS011;42384;45.186;19.958;2023-03-01T14:19:23;31.92;;;23.27;;
56481;SDS011;42384;45.186;19.958;2023-03-01T14:24:30;32.50;;;22.05;;
56481;SDS011;42384;45.186;19.958;2023-03-01T14:26:58;30.80;;;21.77;;
56481;SDS011;42384;45.186;19.958;2023-03-01T14:29:28;30.98;;;22.65;;
56481;SDS011;42384;45.186;19.958;2023-03-01T14:32:10;30.60;;;21.15;;
56481;SDS011;42384;45.186;19.958;2023-03-01T14:34:38;31.45;;;21.75;;
56481;SDS011;42384;45.186;19.958;2023-03-01T14:37:16;34.85;;;22.77;;
56481;SDS011;42384;45.186;19.958;2023-03-01T14:39:44;32.28;;;20.83;;
56481;SDS011;42384;45.186;19.958;2023-03-01T14:42:11;30.90;;;20.63;;
56481;SDS011;42384;45.186;19.958;2023-03-01T14:44:37;33.03;;;20.63;;
56481;SDS011;42384;45.186;19.958;2023-03-01T14:47:04;33.47;;;20.87;;
56481;SDS011;42384;45.186;19.958;2023-03-01T14:49:31;28.27;;;20.60;;
56481;SDS011;42384;45.186;19.958;2023-03-01T14:52:04;29.85;;;20.27;;
56481;SDS011;42384;45.186;19.958;2023-03-01T14:56:58;31.63;;;19.60;;
56481;SDS011;42384;45.186;19.958;2023-03-01T14:59:25;31.77;;;21.55;;
56481;SDS011;42384;45.186;19.958;2023-03-01T15:01:51;27.42;;;20.20;;
56481;SDS011;42384;45.186;19.958;2023-03-01T15:04:18;30.30;;;21.25;;
56481;SDS011;42384;45.186;19.958;2023-03-01T15:06:46;32.42;;;22.10;;
56481;SDS011;42384;45.186;19.958;2023-03-01T15:09:13;33.10;;;20.98;;
56481;SDS011;42384;45.186;19.958;2023-03-01T15:11:43;31.42;;;21.95;;
56481;SDS011;42384;45.186;19.958;2023-03-01T15:14:25;31.90;;;20.42;;
56481;SDS011;42384;45.186;19.958;2023-03-01T15:16:52;33.38;;;22.02;;
56481;SDS011;42384;45.186;19.958;2023-03-01T15:19:18;37.33;;;22.83;;
56481;SDS011;42384;45.186;19.958;2023-03-01T15:21:46;31.45;;;21.83;;
56481;SDS011;42384;45.186;19.958;2023-03-01T15:24:16;36.42;;;23.88;;
56481;SDS011;42384;45.186;19.958;2023-03-01T15:26:45;37.67;;;23.30;;
56481;SDS011;42384;45.186;19.958;2023-03-01T15:29:17;34.00;;;24.05;;
56481;SDS011;42384;45.186;19.958;2023-03-01T15:31:43;34.95;;;21.90;;
56481;SDS011;42384;45.186;19.958;2023-03-01T15:34:11;34.55;;;23.33;;
56481;SDS011;42384;45.186;19.958;2023-03-01T15:36:45;37.25;;;23.23;;
56481;SDS011;42384;45.186;19.958;2023-03-01T15:39:31;36.33;;;22.70;;
56481;SDS011;42384;45.186;19.958;2023-03-01T15:42:02;35.50;;;23.20;;
56481;SDS011;42384;45.186;19.958;2023-03-01T15:44:29;31.63;;;21.13;;
56481;SDS011;42384;45.186;19.958;2023-03-01T15:46:55;30.30;;;21.02;;
56481;SDS011;42384;45.186;19.958;2023-03-01T15:49:38;36.88;;;22.95;;
56481;SDS011;42384;45.186;19.958;2023-03-01T15:52:05;34.70;;;22.52;;
56481;SDS011;42384;45.186;19.958;2023-03-01T15:54:34;33.00;;;21.98;;
56481;SDS011;42384;45.186;19.958;2023-03-01T15:57:00;34.23;;;21.17;;
56481;SDS011;42384;45.186;19.958;2023-03-01T15:59:26;38.17;;;23.33;;
56481;SDS011;42384;45.186;19.958;2023-03-01T16:01:52;36.60;;;22.92;;
56481;SDS011;42384;45.186;19.958;2023-03-01T16:04:19;33.60;;;22.02;;
56481;SDS011;42384;45.186;19.958;2023-03-01T16:06:48;33.85;;;22.25;;
56481;SDS011;42384;45.186;19.958;2023-03-01T16:09:19;42.20;;;25.15;;
56481;SDS011;42384;45.186;19.958;2023-03-01T16:14:12;39.97;;;24.75;;
56481;SDS011;42384;45.186;19.958;2023-03-01T16:16:38;54.20;;;29.95;;
56481;SDS011;42384;45.186;19.958;2023-03-01T16:19:04;93.63;;;51.83;;
56481;SDS011;42384;45.186;19.958;2023-03-01T16:21:30;31.33;;;22.95;;
56481;SDS011;42384;45.186;19.958;2023-03-01T16:23:57;41.43;;;27.37;;
56481;SDS011;42384;45.186;19.958;2023-03-01T16:26:23;40.65;;;25.45;;